METAR Data
IDs: Format: Raw Decoded Include TAF

Data at: 0047 UTC 01 Mar 2021

PAFR 010018Z AUTO 04005KT 3SM -PL BKN006 OVC036 M06/M11 A2955 RMK AO2 SLP017